createdAt,value
2022-09-26T00:01:24.654Z,101160.59
2022-09-26T00:03:54.246Z,101155.72
2022-09-26T00:06:21.433Z,101153.06
2022-09-26T00:08:50.077Z,101148.59
2022-09-26T00:11:29.970Z,101155.91
2022-09-26T00:13:59.655Z,101138.53
2022-09-26T00:16:26.655Z,101141.75
2022-09-26T00:18:55.567Z,101139.94
2022-09-26T00:21:23.270Z,101140.31
2022-09-26T00:23:49.803Z,101138.41
2022-09-26T00:26:19.777Z,101129.81
2022-09-26T00:28:46.569Z,101123.22
2022-09-26T00:31:19.613Z,101123.84
2022-09-26T00:33:47.060Z,101106.28
2022-09-26T00:36:13.864Z,101108.13
2022-09-26T00:38:40.997Z,101096.88
2022-09-26T00:41:08.181Z,101085.63
2022-09-26T00:43:42.280Z,101083.81
2022-09-26T00:46:24.111Z,101070.53
2022-09-26T00:49:03.055Z,101061.13
2022-09-26T00:51:29.594Z,101056.63
2022-09-26T00:53:56.312Z,101048.22
2022-09-26T00:56:30.638Z,101034.97
2022-09-26T00:59:07.570Z,101017.22
2022-09-26T01:01:34.480Z,101022.53
2022-09-26T01:04:04.285Z,101013.16
2022-09-26T01:06:31.454Z,101011.78
2022-09-26T01:09:01.261Z,100995.84
2022-09-26T01:11:29.025Z,100996.97
2022-09-26T01:13:57.804Z,100979.00
2022-09-26T01:16:24.413Z,100973.91
2022-09-26T01:18:51.392Z,100968.66
2022-09-26T01:21:50.353Z,100960.50
2022-09-26T01:24:32.088Z,100965.63
2022-09-26T01:27:04.380Z,100969.28
2022-09-26T01:30:03.387Z,100978.06
2022-09-26T01:32:49.383Z,100972.13
2022-09-26T01:35:32.062Z,100961.47
2022-09-26T01:38:17.447Z,100964.56
2022-09-26T01:41:08.071Z,100968.84
2022-09-26T01:43:56.072Z,100968.28
2022-09-26T01:46:36.954Z,100956.44
2022-09-26T01:49:16.738Z,100954.38
2022-09-26T01:52:13.982Z,100949.47
2022-09-26T01:54:50.744Z,100942.31
2022-09-26T01:57:31.712Z,100937.41
2022-09-26T02:00:04.281Z,100918.38
2022-09-26T02:02:36.227Z,100913.50
2022-09-26T02:05:28.790Z,100893.91
2022-09-26T02:08:01.300Z,100899.63
2022-09-26T02:10:34.795Z,100887.41
2022-09-26T02:13:09.316Z,100886.56
2022-09-26T02:15:39.866Z,100881.47
2022-09-26T02:18:20.558Z,100878.19
2022-09-26T02:20:58.025Z,100874.94
2022-09-26T02:23:24.779Z,100861.47
2022-09-26T02:25:51.459Z,100857.38
2022-09-26T02:28:18.363Z,100860.84
2022-09-26T02:30:47.515Z,100865.50
2022-09-26T02:33:14.658Z,100856.66
2022-09-26T02:35:57.816Z,100842.59
2022-09-26T02:38:27.355Z,100841.19
2022-09-26T02:41:22.810Z,100843.25
2022-09-26T02:43:52.078Z,100835.91
2022-09-26T02:46:39.724Z,100826.34
2022-09-26T02:49:16.178Z,100816.16
2022-09-26T02:52:01.296Z,100808.97
2022-09-26T02:54:46.572Z,100806.31
2022-09-26T02:57:44.863Z,100795.94
2022-09-26T03:00:52.953Z,100776.75
2022-09-26T03:03:26.869Z,100772.03
2022-09-26T03:05:57.715Z,100765.09
2022-09-26T03:08:30.825Z,100753.44
2022-09-26T03:11:02.968Z,100754.06
2022-09-26T03:13:35.818Z,100748.97
2022-09-26T03:16:03.638Z,100755.31
2022-09-26T03:18:40.587Z,100741.41
2022-09-26T03:21:07.582Z,100726.91
2022-09-26T03:23:34.738Z,100726.50
2022-09-26T03:26:08.318Z,100711.81
2022-09-26T03:28:37.833Z,100715.69
2022-09-26T03:31:04.839Z,100717.09
2022-09-26T03:33:32.637Z,100718.34
2022-09-26T03:36:00.078Z,100711.19
2022-09-26T03:38:27.270Z,100701.41
2022-09-26T03:40:54.369Z,100695.69
2022-09-26T03:43:24.089Z,100691.19
2022-09-26T03:45:51.311Z,100688.84
2022-09-26T03:48:19.428Z,100683.50
2022-09-26T03:50:46.124Z,100677.97
2022-09-26T03:53:13.391Z,100664.28
2022-09-26T03:55:39.954Z,100655.88
2022-09-26T03:58:06.519Z,100651.59
2022-09-26T04:00:33.557Z,100644.81
2022-09-26T04:03:02.952Z,100644.16
2022-09-26T04:05:29.807Z,100648.22
2022-09-26T04:07:56.312Z,100631.25
2022-09-26T04:10:24.195Z,100620.00
2022-09-26T04:12:50.878Z,100601.19
2022-09-26T04:15:17.488Z,100596.25
2022-09-26T04:17:47.460Z,100601.50
2022-09-26T04:20:14.271Z,100583.75
2022-09-26T04:22:42.010Z,100587.41
2022-09-26T04:25:12.562Z,100570.09
2022-09-26T04:27:41.397Z,100557.06
2022-09-26T04:30:08.335Z,100549.28
2022-09-26T04:32:34.906Z,100530.75
2022-09-26T04:35:01.393Z,100519.13
2022-09-26T04:37:27.864Z,100517.34
2022-09-26T04:39:54.591Z,100514.06
2022-09-26T04:42:21.754Z,100506.94
2022-09-26T04:44:49.569Z,100509.22
2022-09-26T04:47:17.053Z,100518.38
2022-09-26T04:49:43.534Z,100510.44
2022-09-26T04:52:10.034Z,100504.72
2022-09-26T04:54:37.439Z,100506.19
2022-09-26T04:57:04.731Z,100509.03
2022-09-26T04:59:31.226Z,100508.63
2022-09-26T05:02:01.659Z,100500.50
2022-09-26T05:04:33.482Z,100503.97
2022-09-26T05:07:00.333Z,100498.91
2022-09-26T05:09:35.576Z,100484.44
2022-09-26T05:12:07.172Z,100485.88
2022-09-26T05:14:38.353Z,100476.09
2022-09-26T05:17:10.835Z,100470.63
2022-09-26T05:19:37.652Z,100479.97
2022-09-26T05:22:04.546Z,100464.69
2022-09-26T05:24:49.484Z,100453.28
2022-09-26T05:27:18.571Z,100458.19
2022-09-26T05:29:45.639Z,100447.38
2022-09-26T05:32:15.127Z,100446.41
2022-09-26T05:34:42.011Z,100435.41
2022-09-26T05:37:08.974Z,100435.22
2022-09-26T05:39:53.874Z,100424.03
2022-09-26T05:42:21.467Z,100414.06
2022-09-26T05:44:48.186Z,100398.53
2022-09-26T05:47:14.773Z,100407.72
2022-09-26T05:49:41.585Z,100407.50
2022-09-26T05:52:08.038Z,100400.78
2022-09-26T05:54:35.767Z,100382.00
2022-09-26T05:57:02.253Z,100387.31
2022-09-26T05:59:28.725Z,100377.72
2022-09-26T06:01:55.830Z,100372.81
2022-09-26T06:04:23.194Z,100366.31
2022-09-26T06:06:51.078Z,100379.56
2022-09-26T06:09:19.742Z,100370.16
2022-09-26T06:11:46.325Z,100358.34
2022-09-26T06:14:16.338Z,100351.19
2022-09-26T06:16:43.021Z,100350.78
2022-09-26T06:19:10.722Z,100347.28
2022-09-26T06:21:42.657Z,100330.38
2022-09-26T06:24:11.457Z,100338.91
2022-09-26T06:26:37.933Z,100307.91
2022-09-26T06:29:05.458Z,100309.91
2022-09-26T06:31:33.369Z,100303.38
2022-09-26T06:34:02.827Z,100306.25
2022-09-26T06:36:33.636Z,100298.91
2022-09-26T06:39:00.114Z,100289.31
2022-09-26T06:41:29.922Z,100279.31
2022-09-26T06:43:56.858Z,100272.34
2022-09-26T06:46:23.461Z,100263.72
2022-09-26T06:48:50.191Z,100264.66
2022-09-26T06:51:20.039Z,100252.00
2022-09-26T06:53:47.473Z,100263.38
2022-09-26T06:56:14.374Z,100241.13
2022-09-26T06:58:41.792Z,100235.81
2022-09-26T07:01:08.529Z,100231.09
2022-09-26T07:03:40.493Z,100222.09
2022-09-26T07:06:10.044Z,100219.44
2022-09-26T07:09:00.965Z,100214.31
2022-09-26T07:14:17.843Z,100196.88
2022-09-26T07:16:45.031Z,100192.53
2022-09-26T07:19:13.112Z,100191.91
2022-09-26T07:21:39.951Z,100194.00
2022-09-26T07:24:08.112Z,100193.84
2022-09-26T07:26:37.156Z,100184.06
2022-09-26T07:29:03.835Z,100188.13
2022-09-26T07:31:31.094Z,100184.94
2022-09-26T07:33:58.097Z,100177.78
2022-09-26T07:36:26.232Z,100183.94
2022-09-26T07:39:03.150Z,100178.25
2022-09-26T07:41:38.262Z,100187.19
2022-09-26T07:47:10.882Z,100179.78
2022-09-26T07:50:01.294Z,100166.91
2022-09-26T07:52:30.007Z,100154.28
2022-09-26T07:54:57.845Z,100170.78
2022-09-26T07:57:24.717Z,100167.44
2022-09-26T07:59:51.640Z,100159.63
2022-09-26T08:02:24.602Z,100169.66
2022-09-26T08:05:00.333Z,100157.59
2022-09-26T08:07:27.639Z,100150.31
2022-09-26T08:09:54.228Z,100159.53
2022-09-26T08:12:24.757Z,100157.44
2022-09-26T08:14:52.993Z,100148.31
2022-09-26T08:17:22.991Z,100152.19
2022-09-26T08:19:50.047Z,100139.03
2022-09-26T08:22:16.638Z,100143.63
2022-09-26T08:24:53.148Z,100145.56
2022-09-26T08:27:22.139Z,100133.16
2022-09-26T08:29:51.864Z,100131.38
2022-09-26T08:32:20.820Z,100137.66
2022-09-26T08:34:48.155Z,100131.78
2022-09-26T08:37:14.997Z,100122.38
2022-09-26T08:39:41.612Z,100119.53
2022-09-26T08:42:13.850Z,100115.47
2022-09-26T08:45:01.407Z,100110.00
2022-09-26T08:47:53.531Z,100099.00
2022-09-26T08:50:32.593Z,100111.22
2022-09-26T08:53:05.542Z,100108.78
2022-09-26T08:55:41.180Z,100102.66
2022-09-26T08:58:37.642Z,100108.13
2022-09-26T09:01:16.866Z,100097.34
2022-09-26T09:03:55.908Z,100106.53
2022-09-26T09:06:23.526Z,100087.50
2022-09-26T09:08:53.228Z,100093.44
2022-09-26T09:11:42.352Z,100088.94
2022-09-26T09:14:21.143Z,100088.72
2022-09-26T09:17:02.266Z,100094.41
2022-09-26T09:19:43.307Z,100081.94
2022-09-26T09:22:35.750Z,100081.56
2022-09-26T09:25:31.099Z,100072.78
2022-09-26T09:28:08.574Z,100077.44
2022-09-26T09:30:44.795Z,100079.72
2022-09-26T09:33:16.223Z,100066.66
2022-09-26T09:35:56.339Z,100068.66
2022-09-26T09:38:29.767Z,100063.69
2022-09-26T09:41:16.512Z,100052.84
2022-09-26T09:43:49.369Z,100055.63
2022-09-26T09:46:23.785Z,100062.56
2022-09-26T09:49:19.928Z,100057.91
2022-09-26T09:52:25.588Z,100054.66
2022-09-26T09:55:26.323Z,100054.38
2022-09-26T09:58:30.069Z,100048.75
2022-09-26T10:01:12.528Z,100046.41
2022-09-26T10:04:01.630Z,100044.78
2022-09-26T10:06:46.099Z,100034.59
2022-09-26T10:09:36.327Z,100033.03
2022-09-26T10:12:35.304Z,100032.31
2022-09-26T10:15:08.593Z,100019.66
2022-09-26T10:17:35.368Z,100010.78
2022-09-26T10:20:05.013Z,100018.97
2022-09-26T10:22:38.660Z,100011.41
2022-09-26T10:25:12.044Z,100016.47
2022-09-26T10:27:42.948Z,100004.56
2022-09-26T10:30:19.678Z,100002.28
2022-09-26T10:32:54.133Z,99997.19
2022-09-26T10:35:29.805Z,100006.91
2022-09-26T10:38:02.575Z,100004.31
2022-09-26T10:40:50.447Z,99988.63
2022-09-26T10:43:35.664Z,99994.81
2022-09-26T10:46:15.043Z,99990.53
2022-09-26T10:49:02.047Z,99989.84
2022-09-26T10:51:43.201Z,99996.81
2022-09-26T10:54:17.610Z,100003.34
2022-09-26T10:56:50.925Z,99998.28
2022-09-26T10:59:25.464Z,100001.59
2022-09-26T11:01:59.114Z,100001.81
2022-09-26T11:04:53.976Z,100001.88
2022-09-26T11:07:31.425Z,99999.84
2022-09-26T11:10:04.144Z,99992.03
2022-09-26T11:12:35.387Z,99992.03
2022-09-26T11:15:13.682Z,99995.47
2022-09-26T11:17:48.605Z,99989.06
2022-09-26T11:20:36.275Z,99989.06
2022-09-26T11:23:25.481Z,99986.41
2022-09-26T11:26:01.290Z,99985.59
2022-09-26T11:28:41.720Z,99983.16
2022-09-26T11:31:19.163Z,99982.19
2022-09-26T11:33:49.892Z,99984.84
2022-09-26T11:36:47.373Z,99985.38
2022-09-26T11:39:43.078Z,99986.41
2022-09-26T11:42:28.217Z,99980.44
2022-09-26T11:45:01.281Z,99988.91
2022-09-26T11:47:36.925Z,99983.16
2022-09-26T11:50:23.969Z,99986.63
2022-09-26T11:52:59.539Z,99995.34
2022-09-26T11:55:44.970Z,99987.94
2022-09-26T11:58:27.556Z,99986.53
2022-09-26T12:01:15.920Z,99973.44
2022-09-26T12:04:16.738Z,99968.34
2022-09-26T12:07:02.388Z,99960.06
2022-09-26T12:10:09.888Z,99963.78
2022-09-26T12:13:03.449Z,99971.22
2022-09-26T12:15:39.086Z,99975.81
2022-09-26T12:18:43.961Z,99967.25
2022-09-26T12:21:16.667Z,99961.28
2022-09-26T12:24:06.542Z,99949.31
2022-09-26T12:26:44.977Z,99944.81
2022-09-26T12:30:03.420Z,99947.28
2022-09-26T12:32:57.733Z,99942.91
2022-09-26T12:35:50.309Z,99944.31
2022-09-26T12:38:56.371Z,99934.00
2022-09-26T12:41:34.955Z,99932.03
2022-09-26T12:44:09.083Z,99918.59
2022-09-26T12:47:16.472Z,99914.53
2022-09-26T12:50:17.646Z,99918.00
2022-09-26T12:53:14.887Z,99912.22
2022-09-26T12:56:10.990Z,99913.59
2022-09-26T12:58:59.131Z,99921.19
2022-09-26T13:01:43.642Z,99928.44
2022-09-26T13:04:28.887Z,99929.84
2022-09-26T13:07:43.443Z,99924.75
2022-09-26T13:10:32.895Z,99913.66
2022-09-26T13:13:23.185Z,99917.78
2022-09-26T13:16:04.822Z,99916.75
2022-09-26T13:18:47.293Z,99911.78
2022-09-26T13:21:19.740Z,99906.25
2022-09-26T13:23:55.022Z,99904.19
2022-09-26T13:26:45.235Z,99888.91
2022-09-26T13:29:27.814Z,99900.38
2022-09-26T13:32:22.864Z,99895.75
2022-09-26T13:35:04.593Z,99896.50
2022-09-26T13:37:51.342Z,99898.84
2022-09-26T13:40:33.207Z,99892.72
2022-09-26T13:43:28.191Z,99897.56
2022-09-26T13:46:16.639Z,99890.94
2022-09-26T13:49:01.068Z,99892.13
2022-09-26T13:51:54.546Z,99899.03
2022-09-26T13:54:31.055Z,99904.31
2022-09-26T13:56:57.783Z,99913.31
2022-09-26T13:59:45.665Z,99906.03
2022-09-26T14:02:29.811Z,99900.50
2022-09-26T14:04:59.005Z,99898.69
2022-09-26T14:07:56.130Z,99900.56
2022-09-26T14:10:25.346Z,99893.53
2022-09-26T14:13:11.002Z,99895.25
2022-09-26T14:15:49.568Z,99890.63
2022-09-26T14:18:47.511Z,99898.03
2022-09-26T14:21:40.549Z,99896.75
2022-09-26T14:24:25.666Z,99897.56
2022-09-26T14:27:12.527Z,99886.09
2022-09-26T14:29:48.790Z,99889.59
2022-09-26T14:32:16.289Z,99891.31
2022-09-26T14:34:54.566Z,99891.66
2022-09-26T14:37:24.222Z,99895.72
2022-09-26T14:40:00.279Z,99889.00
2022-09-26T14:42:31.901Z,99890.94
2022-09-26T14:45:04.972Z,99884.97
2022-09-26T14:47:42.734Z,99886.34
2022-09-26T14:50:20.538Z,99881.22
2022-09-26T14:52:55.747Z,99879.16
2022-09-26T14:55:23.482Z,99880.66
2022-09-26T14:57:50.139Z,99881.72
2022-09-26T15:00:42.415Z,99887.16
2022-09-26T15:03:16.458Z,99882.41
2022-09-26T15:05:44.557Z,99890.50
2022-09-26T15:08:32.433Z,99881.72
2022-09-26T15:11:01.356Z,99887.59
2022-09-26T15:13:38.319Z,99888.84
2022-09-26T15:16:18.341Z,99898.38
2022-09-26T15:18:55.446Z,99905.88
2022-09-26T15:21:41.099Z,99901.84
2022-09-26T15:24:37.776Z,99893.16
2022-09-26T15:27:11.151Z,99889.91
2022-09-26T15:29:46.250Z,99894.00
2022-09-26T15:32:19.274Z,99895.59
2022-09-26T15:34:49.874Z,99895.44
2022-09-26T15:37:23.043Z,99887.09
2022-09-26T15:39:50.738Z,99896.34
2022-09-26T15:42:38.895Z,99898.78
2022-09-26T15:45:29.489Z,99887.91
2022-09-26T15:47:59.650Z,99886.91
2022-09-26T15:50:32.474Z,99887.78
2022-09-26T15:53:13.608Z,99887.97
2022-09-26T15:55:50.293Z,99888.66
2022-09-26T15:58:25.774Z,99887.91
2022-09-26T16:00:53.589Z,99892.72
2022-09-26T16:03:28.226Z,99895.59
2022-09-26T16:05:55.424Z,99893.47
2022-09-26T16:08:33.126Z,99904.22
2022-09-26T16:11:02.138Z,99898.19
2022-09-26T16:13:39.753Z,99901.66
2022-09-26T16:16:13.715Z,99906.38
2022-09-26T16:18:57.519Z,99901.66
2022-09-26T16:21:27.762Z,99900.69
2022-09-26T16:23:59.034Z,99893.19
2022-09-26T16:26:30.303Z,99900.19
2022-09-26T16:28:58.710Z,99911.94
2022-09-26T16:31:29.402Z,99892.84
2022-09-26T16:33:58.616Z,99906.19
2022-09-26T16:36:34.876Z,99898.06
2022-09-26T16:39:26.537Z,99907.13
2022-09-26T16:42:12.779Z,99903.38
2022-09-26T16:44:41.488Z,99905.44
2022-09-26T16:47:33.217Z,99909.31
2022-09-26T16:50:33.626Z,99911.38
2022-09-26T16:53:09.118Z,99905.66
2022-09-26T16:55:36.425Z,99905.00
2022-09-26T16:58:05.189Z,99904.75
2022-09-26T17:00:53.170Z,99903.75
2022-09-26T17:03:23.978Z,99905.00
2022-09-26T17:05:52.507Z,99910.75
2022-09-26T17:08:18.946Z,99910.38
2022-09-26T17:10:46.517Z,99923.00
2022-09-26T17:13:21.778Z,99925.06
2022-09-26T17:15:54.762Z,99932.00
2022-09-26T17:18:33.241Z,99929.56
2022-09-26T17:21:00.702Z,99923.88
2022-09-26T17:23:44.558Z,99916.00
2022-09-26T17:26:19.493Z,99907.22
2022-09-26T17:28:46.487Z,99904.19
2022-09-26T17:31:19.229Z,99896.88
2022-09-26T17:33:48.252Z,99920.75
2022-09-26T17:36:24.483Z,99927.28
2022-09-26T17:38:51.341Z,99928.78
2022-09-26T17:41:18.384Z,99928.00
2022-09-26T17:43:45.260Z,99924.97
2022-09-26T17:46:16.449Z,99926.47
2022-09-26T17:48:44.434Z,99920.34
2022-09-26T17:51:14.626Z,99906.09
2022-09-26T17:53:50.472Z,99919.13
2022-09-26T17:56:21.037Z,99905.50
2022-09-26T17:58:49.355Z,99907.75
2022-09-26T18:01:26.466Z,99908.75
2022-09-26T18:04:00.183Z,99912.22
2022-09-26T18:06:32.092Z,99926.50
2022-09-26T18:09:05.335Z,99930.78
2022-09-26T18:11:36.760Z,99926.13
2022-09-26T18:14:06.841Z,99924.91
2022-09-26T18:16:33.554Z,99926.19
2022-09-26T18:19:06.078Z,99931.84
2022-09-26T18:21:34.326Z,99930.38
2022-09-26T18:24:02.600Z,99936.69
2022-09-26T18:26:44.580Z,99926.28
2022-09-26T18:29:15.338Z,99928.94
2022-09-26T18:31:45.277Z,99952.81
2022-09-26T18:34:16.381Z,99950.03
2022-09-26T18:36:43.310Z,99949.66
2022-09-26T18:39:10.608Z,99954.78
2022-09-26T18:41:38.462Z,99960.28
2022-09-26T18:44:06.493Z,99962.72
2022-09-26T18:46:34.068Z,99974.34
2022-09-26T18:49:06.114Z,99973.91
2022-09-26T18:51:33.250Z,99973.31
2022-09-26T18:54:02.057Z,99973.91
2022-09-26T18:56:47.361Z,99971.84
2022-09-26T18:59:14.706Z,99970.69
2022-09-26T19:04:26.569Z,99988.41
2022-09-26T19:07:21.823Z,99999.38
2022-09-26T19:09:52.615Z,99980.84
2022-09-26T19:12:19.311Z,99989.84
2022-09-26T19:14:47.281Z,100001.28
2022-09-26T19:17:15.910Z,99985.44
2022-09-26T19:19:45.885Z,99998.47
2022-09-26T19:22:17.619Z,99998.28
2022-09-26T19:24:53.688Z,99994.25
2022-09-26T19:27:33.533Z,100002.97
2022-09-26T19:30:18.806Z,99998.97
2022-09-26T19:32:51.179Z,100006.53
2022-09-26T19:35:28.350Z,100015.09
2022-09-26T19:37:57.598Z,100020.41
2022-09-26T19:40:25.554Z,100026.69
2022-09-26T19:42:54.924Z,100035.69
2022-09-26T19:45:22.248Z,100033.84
2022-09-26T19:47:55.811Z,100040.19
2022-09-26T19:50:26.801Z,100050.34
2022-09-26T19:52:57.893Z,100041.00
2022-09-26T19:55:27.844Z,100051.97
2022-09-26T19:57:57.808Z,100051.41
2022-09-26T20:00:26.252Z,100040.84
2022-09-26T20:02:54.225Z,100056.91
2022-09-26T20:05:24.062Z,100060.59
2022-09-26T20:07:51.245Z,100075.06
2022-09-26T20:10:30.858Z,100083.00
2022-09-26T20:12:57.317Z,100113.75
2022-09-26T20:15:24.193Z,100097.19
2022-09-26T20:17:51.155Z,100088.84
2022-09-26T20:20:23.804Z,100087.22
2022-09-26T20:22:53.167Z,100069.97
2022-09-26T20:25:29.520Z,100065.28
2022-09-26T20:27:56.379Z,100066.50
2022-09-26T20:30:46.451Z,100066.09
2022-09-26T20:33:13.765Z,100062.25
2022-09-26T20:35:44.474Z,100069.34
2022-09-26T20:38:34.196Z,100081.97
2022-09-26T20:41:08.105Z,100077.28
2022-09-26T20:43:38.939Z,100077.91
2022-09-26T20:46:09.317Z,100072.63
2022-09-26T20:48:38.611Z,100065.31
2022-09-26T20:51:07.444Z,100059.19
2022-09-26T20:53:41.351Z,100054.09
2022-09-26T20:56:16.991Z,100045.13
2022-09-26T20:58:44.389Z,100037.41
2022-09-26T21:01:15.621Z,100039.66
2022-09-26T21:03:50.408Z,100040.47
2022-09-26T21:06:20.068Z,100037.38
2022-09-26T21:08:58.564Z,100042.91
2022-09-26T21:11:25.941Z,100040.25
2022-09-26T21:13:52.445Z,100032.31
2022-09-26T21:16:21.384Z,100037.03
2022-09-26T21:18:51.933Z,100039.06
2022-09-26T21:21:26.764Z,100030.28
2022-09-26T21:23:55.967Z,100036.41
2022-09-26T21:26:28.559Z,100034.75
2022-09-26T21:28:57.482Z,100054.91
2022-09-26T21:31:28.400Z,100070.78
2022-09-26T21:33:57.843Z,100078.31
2022-09-26T21:36:26.432Z,100057.78
2022-09-26T21:38:55.712Z,100058.56
2022-09-26T21:41:23.687Z,100038.66
2022-09-26T21:44:06.254Z,100036.78
2022-09-26T21:46:33.013Z,100039.84
2022-09-26T21:48:59.556Z,100043.09
2022-09-26T21:51:28.231Z,100034.75
2022-09-26T21:54:01.896Z,100038.00
2022-09-26T21:56:35.703Z,100034.16
2022-09-26T21:59:08.796Z,100037.59
2022-09-26T22:01:35.437Z,100023.59
2022-09-26T22:04:02.675Z,100030.69
2022-09-26T22:06:29.367Z,100041.06
2022-09-26T22:08:55.852Z,100034.97
2022-09-26T22:11:22.374Z,100041.28
2022-09-26T22:13:49.114Z,100038.44
2022-09-26T22:16:15.869Z,100034.75
2022-09-26T22:18:42.541Z,100044.94
2022-09-26T22:21:11.281Z,100036.41
2022-09-26T22:23:38.413Z,100032.72
2022-09-26T22:26:05.223Z,100023.16
2022-09-26T22:28:31.714Z,100030.91
2022-09-26T22:31:02.521Z,100028.06
2022-09-26T22:33:29.575Z,100028.06
2022-09-26T22:35:58.404Z,100034.19
2022-09-26T22:38:25.275Z,100020.75
2022-09-26T22:41:04.522Z,100030.91
2022-09-26T22:43:32.511Z,100036.00
2022-09-26T22:46:07.823Z,100031.50
2022-09-26T22:48:42.019Z,100024.81
2022-09-26T22:51:09.296Z,100026.22
2022-09-26T22:53:38.923Z,100032.13
2022-09-26T22:56:06.481Z,100030.94
2022-09-26T22:58:54.299Z,100028.09
2022-09-26T23:01:27.456Z,100027.06
2022-09-26T23:03:57.128Z,100032.75
2022-09-26T23:06:24.610Z,100046.56
2022-09-26T23:08:51.895Z,100046.53
2022-09-26T23:11:19.513Z,100047.16
2022-09-26T23:13:46.727Z,100054.28
2022-09-26T23:16:17.443Z,100050.84
2022-09-26T23:18:47.559Z,100048.41
2022-09-26T23:21:20.505Z,100058.78
2022-09-26T23:23:50.875Z,100069.34
2022-09-26T23:26:23.581Z,100063.88
2022-09-26T23:28:58.393Z,100054.50
2022-09-26T23:31:26.999Z,100054.28
2022-09-26T23:33:54.268Z,100068.31
2022-09-26T23:36:23.011Z,100068.09
2022-09-26T23:38:56.554Z,100081.94
2022-09-26T23:41:23.076Z,100084.38
2022-09-26T23:43:49.544Z,100080.91
2022-09-26T23:46:18.983Z,100081.34
2022-09-26T23:48:45.784Z,100086.41
2022-09-26T23:51:12.275Z,100085.63
2022-09-26T23:53:38.822Z,100083.16
2022-09-26T23:56:12.778Z,100081.94
2022-09-26T23:58:39.760Z,100078.66
